Kansas City, Missouri
Traffic Map
Current Weather Conditions
Kansas City, Missouri
Overcast
Overcast
24°
Feels Like: 24°
Wind Chill: 24° Ceiling: 2300
Heat Index: 24° Visibility: 10mi
Dew Point: 22° Wind: 7mph
Humidity: 87% Direction: 90° (E)
Pressure: 29.84in Gusts: 0mph
Raw Report DataKMKC 161454Z 09006KT 10SM OVC023 24/22 A2984 RMK AO2 LTG DSNT N AND W SLP097 60084 T02390217 50000
Traffic Incident Summary
Active as of:
Severity:
Category:
InformationThere was an issue retrieving the traffic information for this location. Please try a different location or try again shortly.
Advertisements